Time;durP1;ratioP1;P1;durP2;ratioP2;P2;SDS_P1;SDS_P2;PMS_P1;PMS_P2;Temp;Humidity;BMP_temperature;BMP_pressure;BME280_temperature;BME280_humidity;BME280_pressure;Samples;Min_cycle;Max_cycle;Signal;HPM_P1;HPM_P2
2021/10/07 00:00:09;;;;;;;7.22;4.65;;;;;;;13.88;67.29;97935.63;4993126;28;20569;-82
2021/10/07 00:02:34;;;;;;;8.70;4.95;;;;;;;13.88;67.49;97925.97;4979036;28;20033;-81
2021/10/07 00:05:00;;;;;;;5.35;4.18;;;;;;;13.90;67.66;97929.13;5012561;28;20030;-80
2021/10/07 00:07:25;;;;;;;8.35;4.68;;;;;;;13.92;66.99;97928.88;4996261;28;20061;-81
2021/10/07 00:09:50;;;;;;;7.57;4.40;;;;;;;13.96;67.32;97935.97;4996116;28;20080;-81
2021/10/07 00:12:16;;;;;;;8.30;4.45;;;;;;;14.00;66.85;97942.31;4974019;28;20026;-80
2021/10/07 00:14:41;;;;;;;7.45;4.93;;;;;;;14.00;67.14;97934.47;5003960;28;20025;-80
2021/10/07 00:17:07;;;;;;;10.77;5.28;;;;;;;13.96;67.03;97935.19;4991902;28;20049;-80
2021/10/07 00:19:32;;;;;;;7.88;5.40;;;;;;;13.97;67.31;97942.81;4973486;28;20038;-81
2021/10/07 00:21:57;;;;;;;9.40;4.72;;;;;;;13.99;67.05;97943.34;5012530;28;20103;-80
2021/10/07 00:24:23;;;;;;;7.88;4.65;;;;;;;13.98;67.51;97947.03;4996065;28;20033;-80
2021/10/07 00:26:48;;;;;;;7.63;4.18;;;;;;;13.97;67.39;97939.41;4991714;28;20370;-81
2021/10/07 00:32:02;;;;;;;8.25;5.30;;;;;;;13.78;67.45;97939.75;5017071;28;20436;-81
2021/10/07 00:39:21;;;;;;;7.78;4.72;;;;;;;13.95;67.75;97934.41;5012795;28;20045;-81
2021/10/07 00:41:46;;;;;;;7.95;4.97;;;;;;;13.92;67.41;97934.91;5012510;28;20596;-81
2021/10/07 00:44:12;;;;;;;7.97;5.43;;;;;;;13.92;67.35;97941.97;5012276;28;20037;-81
2021/10/07 00:46:52;;;;;;;7.75;5.45;;;;;;;13.70;67.39;97945.41;4995873;28;20025;-81
2021/10/07 00:49:19;;;;;;;7.18;5.70;;;;;;;13.90;67.66;97944.84;4995507;28;20056;-81
2021/10/07 00:51:44;;;;;;;8.15;6.03;;;;;;;13.92;67.25;97934.91;5011814;28;20030;-81
2021/10/07 00:54:11;;;;;;;8.25;5.20;;;;;;;13.89;67.52;97937.22;5008509;28;20056;-82
2021/10/07 00:56:37;;;;;;;9.88;5.53;;;;;;;13.93;67.32;97939.13;5015218;28;20034;-81
2021/10/07 00:59:03;;;;;;;9.50;5.95;;;;;;;13.87;67.72;97932.22;5015014;28;20044;-81
2021/10/07 01:01:28;;;;;;;9.23;5.20;;;;;;;13.86;67.59;97936.69;5014698;28;20057;-81
2021/10/07 01:03:54;;;;;;;8.20;5.10;;;;;;;13.88;67.78;97944.28;4988863;28;20068;-80
2021/10/07 01:06:20;;;;;;;8.73;6.15;;;;;;;13.89;67.38;97932.00;4982142;28;20121;-81
2021/10/07 01:08:45;;;;;;;9.18;5.65;;;;;;;13.95;67.72;97944.06;4994488;28;20069;-81
2021/10/07 01:11:10;;;;;;;10.07;6.68;;;;;;;13.96;67.34;97945.66;4978691;28;20041;-80
2021/10/07 01:13:40;;;;;;;10.07;6.22;;;;;;;13.80;67.40;97947.34;5011673;28;20037;-81
2021/10/07 01:16:05;;;;;;;8.43;5.93;;;;;;;13.91;67.31;97943.78;4978648;28;20030;-81
2021/10/07 01:18:31;;;;;;;8.00;5.80;;;;;;;13.87;67.59;97940.09;4995049;28;20088;-81
2021/10/07 01:20:56;;;;;;;9.75;6.13;;;;;;;13.83;67.56;97941.63;4962844;28;20172;-80
2021/10/07 01:23:22;;;;;;;8.45;5.55;;;;;;;13.84;68.14;97946.59;4978420;28;20034;-80
2021/10/07 01:25:47;;;;;;;8.52;6.30;;;;;;;13.82;67.77;97947.88;4978303;28;20076;-81
2021/10/07 01:28:13;;;;;;;14.40;6.45;;;;;;;13.83;67.93;97939.78;4978481;28;20026;-80
2021/10/07 01:30:38;;;;;;;8.40;6.50;;;;;;;13.84;67.83;97937.97;4994917;28;20068;-81
2021/10/07 01:33:04;;;;;;;7.97;6.20;;;;;;;13.84;67.66;97943.19;4978554;28;20025;-81
2021/10/07 01:35:30;;;;;;;9.00;6.25;;;;;;;13.83;67.87;97939.78;5010550;28;20046;-81
2021/10/07 01:37:56;;;;;;;9.50;6.45;;;;;;;13.80;67.64;97940.28;4978651;28;20022;-81
2021/10/07 01:40:21;;;;;;;9.45;6.20;;;;;;;13.85;67.53;97937.72;4990593;28;20045;-81
2021/10/07 01:42:47;;;;;;;8.13;5.75;;;;;;;13.84;67.38;97941.34;4975334;28;20382;-81
2021/10/07 01:45:13;;;;;;;8.73;5.95;;;;;;;13.82;67.87;97934.81;4991188;28;20109;-81
2021/10/07 01:47:40;;;;;;;6.45;5.38;;;;;;;13.83;67.30;97939.00;4991089;28;20031;-81
2021/10/07 01:50:08;;;;;;;7.75;6.47;;;;;;;13.76;67.71;97943.63;4991048;28;20030;-80
2021/10/07 01:52:33;;;;;;;7.93;6.25;;;;;;;13.78;67.58;97941.56;4958930;28;20081;-81
2021/10/07 01:54:58;;;;;;;7.88;5.90;;;;;;;13.73;67.54;97946.75;5012580;28;20392;-81
2021/10/07 01:57:24;;;;;;;9.23;6.00;;;;;;;13.75;67.69;97944.69;4997665;28;20017;-81
2021/10/07 01:59:49;;;;;;;7.75;6.25;;;;;;;13.71;67.94;97954.03;5014180;28;20041;-80
2021/10/07 02:02:14;;;;;;;9.73;6.55;;;;;;;13.71;67.95;97948.81;5012006;28;20121;-81
2021/10/07 02:04:41;;;;;;;9.30;6.50;;;;;;;13.68;67.88;97957.94;5009912;28;20045;-81
2021/10/07 02:07:06;;;;;;;9.23;6.13;;;;;;;13.69;67.79;97954.28;4977507;28;20597;-80
2021/10/07 02:09:31;;;;;;;7.90;6.30;;;;;;;13.71;67.82;97959.28;5022018;28;20057;-81
2021/10/07 02:11:57;;;;;;;11.57;8.38;;;;;;;13.71;67.62;97967.13;5000269;28;20576;-81
2021/10/07 02:14:23;;;;;;;11.43;9.23;;;;;;;13.67;67.66;97956.34;4990322;28;20509;-81
2021/10/07 02:16:49;;;;;;;9.07;7.63;;;;;;;13.74;67.49;97966.63;4979915;28;20057;-82
2021/10/07 02:19:14;;;;;;;11.18;8.43;;;;;;;13.77;67.64;97963.53;4993989;28;20066;-81
2021/10/07 02:21:40;;;;;;;10.27;7.53;;;;;;;13.82;66.68;97966.22;4978869;28;20136;-81
2021/10/07 02:24:05;;;;;;;10.18;7.97;;;;;;;13.78;67.28;97965.91;4994359;28;20034;-80
2021/10/07 02:26:30;;;;;;;9.25;7.13;;;;;;;13.75;67.21;97968.22;5010381;28;20056;-82
2021/10/07 02:28:56;;;;;;;9.70;7.78;;;;;;;13.72;67.11;97969.50;5010849;28;20029;-80
2021/10/07 02:31:22;;;;;;;11.00;7.38;;;;;;;13.77;67.06;97966.16;4993591;28;20670;-80
2021/10/07 02:33:49;;;;;;;9.43;7.25;;;;;;;13.75;67.02;97973.47;4994454;28;20034;-81
2021/10/07 02:36:15;;;;;;;11.00;7.93;;;;;;;13.76;67.25;97975.03;4990694;28;20037;-81
2021/10/07 02:38:41;;;;;;;10.38;7.80;;;;;;;13.82;66.75;97977.47;4974049;28;20026;-81
2021/10/07 02:41:06;;;;;;;11.48;7.78;;;;;;;13.79;66.93;97966.69;4991286;28;20100;-80
2021/10/07 02:43:31;;;;;;;9.88;7.25;;;;;;;13.75;67.03;97968.22;4974095;28;20481;-81
2021/10/07 02:45:57;;;;;;;12.25;7.40;;;;;;;13.72;67.38;97973.94;4990278;28;20030;-80
2021/10/07 02:48:22;;;;;;;10.88;7.28;;;;;;;13.74;67.38;97977.09;4990546;28;20089;-80
2021/10/07 02:50:48;;;;;;;10.38;7.10;;;;;;;13.74;67.47;97966.63;4984647;28;20145;-81
2021/10/07 02:53:13;;;;;;;9.50;7.35;;;;;;;13.73;67.47;97975.53;4993677;28;20033;-81
2021/10/07 02:55:39;;;;;;;11.18;8.13;;;;;;;13.71;67.49;97975.78;5010831;28;20377;-81
2021/10/07 02:58:04;;;;;;;11.50;7.45;;;;;;;13.73;67.40;97981.56;4977603;28;20037;-81
2021/10/07 03:00:29;;;;;;;10.75;6.90;;;;;;;13.76;67.34;97980.25;4979641;28;20643;-81
2021/10/07 03:02:55;;;;;;;11.15;7.13;;;;;;;13.73;67.66;97981.56;5011969;28;20037;-81
2021/10/07 03:05:20;;;;;;;11.05;7.18;;;;;;;13.73;67.74;97978.16;4993412;28;20030;-81
2021/10/07 03:07:45;;;;;;;9.63;6.70;;;;;;;13.72;67.72;97981.81;4993189;28;20613;-80
2021/10/07 03:10:11;;;;;;;10.43;7.55;;;;;;;13.71;67.75;97988.06;4977188;28;20112;-81
2021/10/07 03:12:37;;;;;;;9.98;6.55;;;;;;;13.75;67.67;97991.78;4993563;28;20490;-80
2021/10/07 03:15:03;;;;;;;9.88;7.15;;;;;;;13.70;67.53;97992.50;5009290;28;20041;-80
2021/10/07 03:17:29;;;;;;;10.65;6.80;;;;;;;13.73;67.80;97988.63;5009812;28;20033;-81
2021/10/07 03:19:54;;;;;;;8.63;6.15;;;;;;;13.73;67.58;97994.66;4993619;28;20038;-81
2021/10/07 03:22:21;;;;;;;10.73;7.22;;;;;;;13.73;67.66;97997.25;4976897;28;20053;-81
2021/10/07 03:24:46;;;;;;;9.27;7.15;;;;;;;13.75;67.76;98003.03;5010898;28;20573;-81
2021/10/07 03:27:12;;;;;;;9.73;7.00;;;;;;;13.71;67.95;98003.75;4997176;28;20085;-80
2021/10/07 03:29:37;;;;;;;10.00;7.22;;;;;;;13.71;68.03;98004.56;4997432;28;20549;-80
2021/10/07 03:32:03;;;;;;;10.48;7.32;;;;;;;13.65;67.92;98001.09;4996830;28;20041;-80
2021/10/07 03:34:28;;;;;;;12.68;7.70;;;;;;;13.67;68.14;98009.50;4996502;28;20125;-81
2021/10/07 03:36:54;;;;;;;10.82;6.22;;;;;;;13.70;67.85;98002.19;4997099;28;20041;-81
2021/10/07 03:39:19;;;;;;;9.13;6.45;;;;;;;13.70;68.06;98004.81;4980598;28;20126;-81
2021/10/07 03:41:44;;;;;;;10.45;7.15;;;;;;;13.70;67.91;98008.22;4993455;28;20038;-80
2021/10/07 03:44:10;;;;;;;9.27;6.45;;;;;;;13.74;67.87;98004.06;4977216;28;20057;-80
2021/10/07 03:46:35;;;;;;;10.00;6.57;;;;;;;13.73;67.90;98012.19;4976957;28;20026;-80
2021/10/07 03:49:01;;;;;;;11.68;7.10;;;;;;;13.68;67.86;98016.31;4993267;28;20030;-80
2021/10/07 03:51:26;;;;;;;10.80;6.93;;;;;;;13.72;67.76;98021.06;4986392;28;20030;-81
2021/10/07 03:53:52;;;;;;;11.98;6.88;;;;;;;13.69;67.71;98017.09;5013145;28;20038;-81
2021/10/07 03:56:17;;;;;;;8.70;6.57;;;;;;;13.71;67.91;98022.06;4995974;28;20045;-80
2021/10/07 03:58:43;;;;;;;8.63;5.95;;;;;;;13.70;67.94;98023.91;4996283;28;20075;-80
2021/10/07 04:01:08;;;;;;;12.68;7.15;;;;;;;13.73;67.90;98023.44;5002585;28;20064;-81
2021/10/07 04:03:34;;;;;;;11.15;6.97;;;;;;;13.70;67.71;98021.28;4997435;28;20102;-80
2021/10/07 04:05:59;;;;;;;7.78;6.03;;;;;;;13.70;67.89;98023.91;5012466;28;20042;-80
2021/10/07 04:08:25;;;;;;;12.27;8.38;;;;;;;13.73;67.50;98026.06;4995911;28;20034;-81
2021/10/07 04:10:50;;;;;;;11.88;7.97;;;;;;;13.69;67.49;98027.56;4979008;28;20037;-81
2021/10/07 04:13:23;;;;;;;11.88;8.68;;;;;;;13.52;67.69;98032.88;4992986;28;20037;-80
2021/10/07 04:15:49;;;;;;;11.93;8.68;;;;;;;13.68;67.70;98036.47;4993922;28;20030;-80
2021/10/07 04:18:16;;;;;;;11.63;8.25;;;;;;;13.71;67.10;98035.16;4974386;28;20117;-81
2021/10/07 04:20:42;;;;;;;11.32;8.23;;;;;;;13.62;67.20;98033.00;5012466;28;20112;-81
2021/10/07 04:23:09;;;;;;;13.60;8.25;;;;;;;13.51;67.32;98035.72;5012395;28;20108;-80
2021/10/07 04:25:35;;;;;;;18.05;10.75;;;;;;;13.49;67.47;98054.28;4995420;28;20704;-81
2021/10/07 04:28:01;;;;;;;14.35;9.52;;;;;;;13.41;67.99;98046.81;4996063;28;20046;-81
2021/10/07 04:30:27;;;;;;;12.40;8.32;;;;;;;13.44;67.63;98056.81;5012198;28;20025;-80
2021/10/07 04:32:52;;;;;;;14.75;10.07;;;;;;;13.41;67.89;98050.22;4995859;28;20048;-81
2021/10/07 04:35:20;;;;;;;18.20;12.15;;;;;;;13.40;68.17;98056.50;5012031;28;20030;-80
2021/10/07 04:37:46;;;;;;;19.40;11.73;;;;;;;13.39;67.93;98051.50;5011411;28;20041;-81
2021/10/07 04:40:11;;;;;;;16.15;11.25;;;;;;;13.36;68.28;98057.22;5013514;28;20493;-81
2021/10/07 04:42:37;;;;;;;12.25;9.18;;;;;;;13.40;68.10;98055.69;4995624;28;20029;-80
2021/10/07 04:45:03;;;;;;;12.30;9.02;;;;;;;13.37;67.94;98062.22;4995171;28;20026;-80
2021/10/07 04:47:29;;;;;;;11.98;7.97;;;;;;;13.35;67.97;98059.06;4995322;28;20052;-80
2021/10/07 04:49:55;;;;;;;9.70;7.18;;;;;;;13.32;68.06;98061.34;5011975;28;20604;-80
2021/10/07 04:52:20;;;;;;;11.20;8.00;;;;;;;13.29;67.58;98060.75;5011753;28;20042;-80
2021/10/07 04:54:46;;;;;;;9.85;6.72;;;;;;;13.22;68.34;98067.97;4979102;28;20076;-80
2021/10/07 04:57:11;;;;;;;9.73;6.65;;;;;;;13.19;67.83;98058.00;4995628;28;20480;-80
2021/10/07 04:59:36;;;;;;;9.95;7.63;;;;;;;13.18;68.18;98059.03;5010921;28;20026;-80
2021/10/07 05:02:02;;;;;;;11.57;6.70;;;;;;;13.18;68.14;98059.03;5010540;28;20480;-80
2021/10/07 05:04:27;;;;;;;10.73;7.22;;;;;;;13.12;68.49;98057.38;5011642;28;20049;-80
2021/10/07 05:06:53;;;;;;;11.95;7.97;;;;;;;13.15;68.54;98059.50;5010767;28;20386;-80
2021/10/07 05:09:18;;;;;;;10.85;7.80;;;;;;;13.20;68.68;98061.41;4994473;28;20030;-80
2021/10/07 05:11:43;;;;;;;9.32;7.28;;;;;;;13.18;68.65;98064.25;5011680;28;20056;-80
2021/10/07 05:14:09;;;;;;;11.10;8.02;;;;;;;13.18;68.43;98068.69;5011579;28;20305;-80
2021/10/07 05:16:34;;;;;;;11.35;7.43;;;;;;;13.21;67.88;98068.22;5010438;28;20116;-80
2021/10/07 05:19:00;;;;;;;10.55;7.50;;;;;;;13.21;68.06;98060.38;4978249;28;20034;-80
2021/10/07 05:21:25;;;;;;;11.25;7.30;;;;;;;13.18;67.83;98064.25;4994084;28;20052;-81
2021/10/07 05:23:50;;;;;;;11.70;7.80;;;;;;;13.15;68.18;98067.34;4994157;28;20903;-80
2021/10/07 05:26:16;;;;;;;10.25;7.40;;;;;;;13.10;68.02;98059.44;4994507;28;20068;-80
2021/10/07 05:28:44;;;;;;;10.93;7.82;;;;;;;13.08;68.13;98064.13;4994739;28;20057;-80
2021/10/07 05:31:10;;;;;;;10.13;8.02;;;;;;;13.08;67.93;98074.56;5010994;28;20080;-80
2021/10/07 05:33:35;;;;;;;16.25;8.75;;;;;;;13.04;67.83;98078.66;4978551;28;20069;-80
2021/10/07 05:36:00;;;;;;;11.38;7.53;;;;;;;13.01;68.29;98087.00;4994038;28;20508;-79
2021/10/07 05:38:26;;;;;;;10.27;7.60;;;;;;;12.97;67.80;98086.69;5010895;28;20073;-80
2021/10/07 05:40:51;;;;;;;11.90;8.43;;;;;;;12.96;67.77;98097.38;5011074;28;20379;-80
2021/10/07 05:43:17;;;;;;;9.32;7.03;;;;;;;12.97;68.21;98098.94;4994624;28;20030;-80
2021/10/07 05:45:42;;;;;;;10.75;8.13;;;;;;;12.98;68.22;98106.56;4994188;28;20042;-81
2021/10/07 05:48:07;;;;;;;11.73;8.35;;;;;;;13.02;68.55;98104.25;5011031;28;20061;-81
2021/10/07 05:50:33;;;;;;;13.38;8.38;;;;;;;13.04;68.16;98105.63;4990914;28;20046;-80
2021/10/07 05:52:58;;;;;;;11.60;7.35;;;;;;;13.09;68.33;98100.47;4975096;28;20026;-81
2021/10/07 05:55:24;;;;;;;11.05;7.60;;;;;;;13.13;68.39;98106.03;4958410;28;20125;-80
2021/10/07 05:57:49;;;;;;;12.88;8.88;;;;;;;13.15;68.19;98097.94;4974781;28;20034;-80
2021/10/07 06:00:15;;;;;;;12.02;8.23;;;;;;;13.15;68.22;98101.34;4976610;28;20122;-80
2021/10/07 06:02:40;;;;;;;12.85;8.60;;;;;;;13.17;68.46;98114.97;4994833;28;20022;-80
2021/10/07 06:05:07;;;;;;;13.55;8.45;;;;;;;13.16;68.61;98107.34;4974391;28;20064;-80
2021/10/07 06:07:33;;;;;;;14.23;9.18;;;;;;;13.22;68.43;98109.81;4989872;28;20116;-80
2021/10/07 06:09:58;;;;;;;12.32;7.95;;;;;;;13.29;68.27;98117.50;5010996;28;20504;-80
2021/10/07 06:12:24;;;;;;;12.02;8.20;;;;;;;13.35;68.42;98113.16;4983243;28;20025;-80
2021/10/07 06:14:50;;;;;;;14.57;9.75;;;;;;;13.36;68.06;98110.31;5009952;28;20060;-80
2021/10/07 06:17:15;;;;;;;13.93;9.40;;;;;;;13.39;68.33;98112.47;4994153;28;20038;-80
2021/10/07 06:19:44;;;;;;;15.90;9.15;;;;;;;13.43;68.04;98116.16;4995915;28;20096;-80
2021/10/07 06:22:09;;;;;;;13.70;8.77;;;;;;;13.47;67.97;98113.91;4978145;28;20033;-80
2021/10/07 06:24:35;;;;;;;14.30;9.25;;;;;;;13.47;68.66;98112.06;4993336;28;20034;-80
2021/10/07 06:27:00;;;;;;;15.27;9.13;;;;;;;13.53;68.50;98118.16;4993601;28;20549;-81
2021/10/07 06:29:27;;;;;;;15.65;8.38;;;;;;;13.61;68.29;98124.81;5010040;28;20033;-80
2021/10/07 06:31:52;;;;;;;13.20;8.63;;;;;;;13.64;68.05;98114.66;4993807;28;20137;-81
2021/10/07 06:34:18;;;;;;;17.30;9.63;;;;;;;13.72;67.90;98123.13;4993407;28;20819;-80
2021/10/07 06:36:43;;;;;;;14.93;9.40;;;;;;;13.80;68.09;98135.81;4993559;28;20573;-80
2021/10/07 06:39:08;;;;;;;18.27;9.45;;;;;;;13.86;67.68;98134.81;4993865;28;20367;-80
2021/10/07 06:41:35;;;;;;;17.15;10.00;;;;;;;13.98;67.81;98124.25;4990191;28;20037;-80
2021/10/07 06:44:00;;;;;;;13.85;8.88;;;;;;;14.07;67.41;98130.66;4990212;28;20046;-81
2021/10/07 06:46:27;;;;;;;14.23;8.48;;;;;;;14.19;67.39;98125.31;4990579;28;20085;-80
2021/10/07 06:48:55;;;;;;;12.07;8.02;;;;;;;14.31;66.91;98135.63;4990292;28;20588;-80
2021/10/07 06:51:26;;;;;;;15.48;9.70;;;;;;;14.12;67.24;98130.72;4982447;28;20092;-80
2021/10/07 06:53:54;;;;;;;14.98;9.25;;;;;;;14.34;67.26;98122.06;4974161;28;20048;-79
2021/10/07 06:56:20;;;;;;;13.10;8.10;;;;;;;14.46;67.04;98124.53;4989978;28;20096;-80
2021/10/07 06:58:47;;;;;;;12.82;8.10;;;;;;;14.57;66.61;98126.25;4973306;28;20038;-80
2021/10/07 07:01:13;;;;;;;13.35;7.85;;;;;;;14.60;66.71;98138.91;4995042;28;20467;-80
2021/10/07 07:03:38;;;;;;;11.45;7.25;;;;;;;14.78;66.36;98132.50;5012778;28;20041;-80
2021/10/07 07:06:04;;;;;;;10.95;7.45;;;;;;;14.95;66.01;98154.16;5012322;28;20519;-79
2021/10/07 07:08:29;;;;;;;12.05;7.78;;;;;;;15.04;65.60;98153.72;5028040;28;20096;-80
2021/10/07 07:10:55;;;;;;;11.80;6.70;;;;;;;14.94;66.11;98159.66;4993127;28;20057;-80
2021/10/07 07:13:20;;;;;;;9.43;7.15;;;;;;;14.97;65.30;98162.56;4977062;28;20034;-80
2021/10/07 07:15:45;;;;;;;9.85;7.45;;;;;;;14.85;65.38;98163.78;5009147;28;20378;-80
2021/10/07 07:18:11;;;;;;;9.65;6.95;;;;;;;14.88;65.36;98168.53;5011125;28;20365;-80
2021/10/07 07:20:36;;;;;;;9.77;7.22;;;;;;;14.90;65.97;98171.69;4972892;28;20034;-80
2021/10/07 07:23:01;;;;;;;10.32;7.57;;;;;;;14.89;65.62;98170.09;4997792;28;20025;-81
2021/10/07 07:25:27;;;;;;;12.02;7.93;;;;;;;14.99;65.25;98170.19;5004417;28;20049;-80
2021/10/07 07:27:52;;;;;;;10.00;8.07;;;;;;;15.02;65.21;98180.19;4992835;28;20049;-80
2021/10/07 07:30:18;;;;;;;9.95;6.93;;;;;;;14.99;65.83;98183.31;5009653;28;20095;-80
2021/10/07 07:32:43;;;;;;;9.55;7.35;;;;;;;14.99;65.82;98185.94;4992795;28;20076;-81
2021/10/07 07:35:09;;;;;;;8.80;6.97;;;;;;;14.94;65.82;98183.25;5009084;28;20105;-80
2021/10/07 07:37:35;;;;;;;12.20;7.88;;;;;;;14.93;66.11;98186.94;4970856;28;20646;-80
2021/10/07 07:40:00;;;;;;;10.23;6.93;;;;;;;14.88;65.91;98185.06;5009407;28;20469;-80
2021/10/07 07:42:25;;;;;;;9.05;6.35;;;;;;;14.92;65.91;98180.09;4993129;28;20041;-80
2021/10/07 07:44:51;;;;;;;12.90;7.03;;;;;;;14.91;66.17;98195.06;4982080;28;20042;-79
2021/10/07 07:47:16;;;;;;;9.85;7.28;;;;;;;14.94;65.71;98193.75;4989603;28;20084;-80
2021/10/07 07:49:42;;;;;;;8.35;5.75;;;;;;;14.92;65.93;98190.59;4989560;28;20046;-80
2021/10/07 07:52:08;;;;;;;7.07;5.00;;;;;;;14.91;65.54;98200.28;4957806;28;20125;-80
2021/10/07 07:54:34;;;;;;;8.35;5.90;;;;;;;14.82;65.92;98199.13;4989276;28;20027;-80
2021/10/07 07:57:00;;;;;;;7.15;5.65;;;;;;;14.85;65.84;98200.50;4990420;28;20885;-81
2021/10/07 07:59:25;;;;;;;6.10;4.63;;;;;;;14.87;65.17;98199.19;4957279;28;20026;-80
2021/10/07 08:01:50;;;;;;;9.38;5.78;;;;;;;14.83;65.84;98202.56;5000971;28;20057;-79
2021/10/07 08:04:16;;;;;;;6.60;5.15;;;;;;;14.86;65.65;98202.88;5001152;28;20034;-80
2021/10/07 08:06:41;;;;;;;10.15;5.88;;;;;;;14.82;65.93;98206.22;4972828;28;20037;-80
2021/10/07 08:09:08;;;;;;;8.95;5.93;;;;;;;14.84;66.09;98204.94;4970888;28;20046;-80
2021/10/07 08:11:39;;;;;;;9.60;6.05;;;;;;;14.88;66.02;98215.72;4990154;28;20035;-81
2021/10/07 08:14:06;;;;;;;9.68;6.05;;;;;;;14.89;66.11;98222.53;4976272;28;20525;-80
2021/10/07 08:16:32;;;;;;;9.38;6.25;;;;;;;14.94;66.14;98227.84;4977048;28;20386;-80
2021/10/07 08:18:57;;;;;;;12.50;5.93;;;;;;;15.00;65.91;98224.25;4963392;28;20417;-80
2021/10/07 08:21:23;;;;;;;7.32;5.85;;;;;;;15.00;65.71;98223.47;4995150;28;20038;-80
2021/10/07 08:23:48;;;;;;;6.68;5.57;;;;;;;15.04;65.59;98230.56;4994746;28;20121;-80
2021/10/07 08:26:15;;;;;;;8.23;5.40;;;;;;;14.88;65.38;98224.38;5011536;28;20096;-79
2021/10/07 08:28:40;;;;;;;8.63;5.78;;;;;;;14.94;65.52;98227.84;4979643;28;20034;-80
2021/10/07 08:31:06;;;;;;;8.18;5.25;;;;;;;15.05;65.62;98231.38;4979806;28;20509;-80
2021/10/07 08:33:31;;;;;;;7.18;4.97;;;;;;;15.10;65.48;98229.59;4995808;28;20703;-79
2021/10/07 08:35:57;;;;;;;6.45;5.20;;;;;;;15.22;65.45;98231.28;4993537;28;20029;-79
2021/10/07 08:38:26;;;;;;;7.53;4.68;;;;;;;15.33;64.87;98232.94;4991396;28;20033;-80
2021/10/07 08:40:51;;;;;;;5.53;4.25;;;;;;;15.40;64.31;98238.00;4995746;28;20022;-80
2021/10/07 08:43:17;;;;;;;6.93;4.70;;;;;;;15.47;63.66;98243.81;4979052;28;20052;-80
2021/10/07 08:45:42;;;;;;;7.13;4.70;;;;;;;15.46;63.70;98243.03;5011011;28;20029;-80
2021/10/07 08:48:08;;;;;;;5.15;4.60;;;;;;;15.37;63.73;98249.78;4994903;28;20045;-80
2021/10/07 08:50:34;;;;;;;7.95;4.63;;;;;;;15.45;63.19;98251.16;4994966;28;20022;-80
2021/10/07 08:53:00;;;;;;;6.57;4.10;;;;;;;15.40;63.56;98246.66;4978994;28;20119;-80
2021/10/07 08:55:25;;;;;;;5.47;4.13;;;;;;;15.43;63.51;98248.00;4990737;28;20086;-80
2021/10/07 08:57:51;;;;;;;6.22;4.65;;;;;;;15.52;63.55;98246.50;4999235;28;20117;-80
2021/10/07 09:00:16;;;;;;;6.88;4.25;;;;;;;15.46;64.67;98245.66;4960299;28;20034;-80
2021/10/07 09:02:43;;;;;;;9.15;4.95;;;;;;;15.50;64.55;98249.38;5023792;28;20118;-80
2021/10/07 09:05:15;;;;;;;8.27;4.60;;;;;;;15.32;64.66;98239.25;4978667;28;20124;-79
2021/10/07 09:08:02;;;;;;;4.80;3.88;;;;;;;15.31;64.64;98243.69;4995784;28;20616;-80
2021/10/07 09:10:38;;;;;;;5.80;3.85;;;;;;;15.38;64.15;98247.94;4979406;28;20029;-79
2021/10/07 09:13:04;;;;;;;6.57;4.00;;;;;;;15.53;64.27;98242.84;5012663;28;20038;-79
2021/10/07 09:15:30;;;;;;;5.78;4.30;;;;;;;15.54;64.77;98239.16;5011618;28;20129;-80
2021/10/07 09:18:01;;;;;;;5.43;4.13;;;;;;;15.47;64.06;98241.19;4995915;28;20025;-79
2021/10/07 09:20:48;;;;;;;6.18;4.50;;;;;;;15.26;64.53;98241.00;5012102;28;20049;-80
2021/10/07 09:23:18;;;;;;;6.55;4.25;;;;;;;15.43;64.37;98246.16;5011292;28;20038;-79
2021/10/07 09:26:04;;;;;;;6.07;4.90;;;;;;;15.21;65.01;98237.56;5010802;28;20033;-80
2021/10/07 09:29:02;;;;;;;7.20;4.70;;;;;;;15.15;65.06;98231.47;4994873;28;20747;-80
2021/10/07 09:31:30;;;;;;;5.80;4.30;;;;;;;15.44;64.42;98233.81;4999022;28;20481;-80
2021/10/07 09:33:58;;;;;;;6.35;4.40;;;;;;;15.40;64.37;98235.38;4994598;28;20034;-79
2021/10/07 09:36:23;;;;;;;7.05;5.10;;;;;;;15.48;64.24;98229.69;5011395;28;20065;-80
2021/10/07 09:38:51;;;;;;;7.65;5.18;;;;;;;15.42;64.80;98226.22;5010785;28;20073;-79
2021/10/07 09:41:19;;;;;;;7.93;5.65;;;;;;;15.57;64.17;98233.41;4991627;28;20064;-80
2021/10/07 09:43:52;;;;;;;8.63;5.93;;;;;;;15.52;64.83;98231.56;4991110;28;20070;-79
2021/10/07 09:46:51;;;;;;;5.88;4.45;;;;;;;15.62;63.81;98230.03;4958692;28;20708;-80
2021/10/07 09:49:33;;;;;;;5.32;4.53;;;;;;;16.04;62.93;98227.47;4944100;28;20144;-80
2021/10/07 09:52:01;;;;;;;5.38;4.50;;;;;;;16.11;63.10;98227.25;4976524;28;20518;-80
2021/10/07 09:54:33;;;;;;;6.13;4.68;;;;;;;15.93;63.27;98225.81;4994510;28;20088;-81
2021/10/07 09:57:00;;;;;;;8.18;4.70;;;;;;;16.23;63.35;98222.59;5010470;28;20026;-81
2021/10/07 09:59:27;;;;;;;6.85;3.95;;;;;;;16.33;62.96;98215.78;5011594;28;20116;-80
2021/10/07 10:01:55;;;;;;;4.93;3.50;;;;;;;16.77;61.23;98216.22;4998670;28;20037;-80
2021/10/07 10:04:22;;;;;;;5.72;2.67;;;;;;;17.32;58.25;98213.22;4974342;28;20037;-79
2021/10/07 10:06:47;;;;;;;3.15;2.80;;;;;;;17.39;58.51;98214.53;5011103;28;20041;-79
2021/10/07 10:09:13;;;;;;;3.17;2.45;;;;;;;17.29;58.17;98216.34;5011156;28;20100;-81
2021/10/07 10:11:40;;;;;;;3.88;2.47;;;;;;;16.86;58.00;98229.69;4987540;28;20036;-82
2021/10/07 10:14:06;;;;;;;2.90;2.35;;;;;;;16.87;57.82;98212.09;4975094;28;20402;-81
2021/10/07 10:16:35;;;;;;;3.90;2.83;;;;;;;16.73;58.69;98215.19;4992162;28;20022;-80
2021/10/07 10:19:02;;;;;;;3.83;2.53;;;;;;;16.64;59.11;98214.88;4975696;28;20031;-81
2021/10/07 10:21:32;;;;;;;3.60;2.50;;;;;;;16.62;58.03;98216.19;4976067;28;20666;-82
2021/10/07 10:23:58;;;;;;;4.15;2.78;;;;;;;16.78;59.32;98217.81;4993191;28;20041;-80
2021/10/07 10:26:24;;;;;;;4.90;2.65;;;;;;;17.00;59.76;98212.38;5009650;28;20030;-81
2021/10/07 10:28:52;;;;;;;3.20;2.25;;;;;;;16.85;58.94;98202.59;4995400;28;20105;-81
2021/10/07 10:31:33;;;;;;;3.80;1.90;;;;;;;16.91;58.37;98208.66;5010408;28;20040;-82
2021/10/07 10:34:09;;;;;;;5.32;2.78;;;;;;;17.22;57.34;98216.59;4992883;28;20037;-80
2021/10/07 10:36:44;;;;;;;2.40;1.98;;;;;;;17.16;55.00;98218.44;4993461;28;20100;-79
2021/10/07 10:39:29;;;;;;;2.78;2.03;;;;;;;17.28;56.70;98226.09;4993544;28;20100;-80
2021/10/07 10:42:00;;;;;;;3.78;2.75;;;;;;;17.54;58.09;98220.84;4994315;28;20026;-81
2021/10/07 10:44:30;;;;;;;3.30;2.35;;;;;;;17.42;55.44;98214.00;4993580;28;20585;-80
2021/10/07 10:47:08;;;;;;;2.60;2.30;;;;;;;17.49;55.51;98226.13;5010175;28;20053;-81
2021/10/07 10:49:51;;;;;;;3.30;2.42;;;;;;;17.51;55.52;98232.72;4994361;28;20087;-82
2021/10/07 10:52:23;;;;;;;4.53;2.60;;;;;;;17.26;54.41;98233.47;5010965;28;20061;-81
2021/10/07 10:54:59;;;;;;;3.78;2.17;;;;;;;17.42;56.11;98231.63;5011113;28;20026;-82
2021/10/07 10:57:45;;;;;;;3.47;2.47;;;;;;;17.29;54.65;98235.59;4995117;28;20088;-81
2021/10/07 11:00:30;;;;;;;2.53;2.28;;;;;;;17.41;55.30;98232.72;4993764;28;20045;-80
2021/10/07 11:03:18;;;;;;;2.60;2.40;;;;;;;17.37;56.25;98245.59;4974639;28;20070;-81
2021/10/07 11:06:03;;;;;;;3.40;2.35;;;;;;;17.70;53.85;98242.69;5008806;28;20065;-80
2021/10/07 11:08:29;;;;;;;3.25;2.53;;;;;;;17.82;53.73;98240.59;5010887;28;20176;-79
2021/10/07 11:10:56;;;;;;;3.83;2.58;;;;;;;17.87;53.72;98242.47;4991941;28;20034;-80
2021/10/07 11:13:25;;;;;;;3.03;2.28;;;;;;;17.80;55.15;98242.69;4974719;28;20038;-81
2021/10/07 11:15:57;;;;;;;3.88;2.70;;;;;;;17.67;54.41;98246.66;4970966;28;20022;-80
2021/10/07 11:18:28;;;;;;;4.18;2.78;;;;;;;17.58;55.46;98249.03;4995510;28;20032;-80
2021/10/07 11:21:16;;;;;;;3.17;2.28;;;;;;;17.28;55.96;98247.16;4977956;28;20070;-82
2021/10/07 11:23:42;;;;;;;2.63;2.30;;;;;;;17.38;54.19;98244.53;4983030;28;20073;-81
2021/10/07 11:26:08;;;;;;;3.05;2.28;;;;;;;17.63;54.07;98245.59;4984863;28;20042;-81
2021/10/07 11:28:38;;;;;;;2.42;2.22;;;;;;;17.42;55.10;98257.97;5001465;28;20037;-81
2021/10/07 11:31:07;;;;;;;3.90;2.42;;;;;;;17.51;53.94;98258.22;4969613;28;20022;-81
2021/10/07 11:33:33;;;;;;;2.50;1.88;;;;;;;17.77;53.88;98264.31;4993932;28;20113;-82
2021/10/07 11:36:00;;;;;;;3.75;2.50;;;;;;;17.95;55.32;98263.78;5010362;28;20101;-81